Lamb, Illinois
Current Conditions -  °F | °C
As of 6:35 PM on Saturday 22 Nov 2014 (Local Time) from K5M9 Reporting Station
Clear Clear  
Wind Chill: 57°   Ceiling: Unl
Heat Index: 57°   Visibility: 10mi
Dew Point: 36°   Wind: 6mph
Humidity: 44%   Direction: 180°S
Pressure: 30.04"   Gusts: NA
Location:  37.5407°N, 88.2414°W
Report Text: K5M9 230035Z AUTO 18005KT 10SM CLR 14/02 A3004 RMK AO2 T01410021
Loading
Personal Weather Stations






























Interactive Weather Map New forecast layout! Learn more

10-Day Weather Forecast

Advertisements
Track Severe Weather on mobile